sensor_id;sensor_type;location;lat;lon;timestamp;pressure;altitude;pressure_sealevel;temperature;humidity
50696;BME280;36665;51.786;21.594;2023-03-30T00:02:08;92637.81;;;1.38;65.67
50696;BME280;36665;51.786;21.594;2023-03-30T00:10:31;92630.30;;;1.36;65.78
50696;BME280;36665;51.786;21.594;2023-03-30T00:18:54;92611.17;;;1.31;65.74
50696;BME280;36665;51.786;21.594;2023-03-30T00:27:17;92594.23;;;1.26;65.62
50696;BME280;36665;51.786;21.594;2023-03-30T00:35:40;92583.23;;;1.24;65.45
50696;BME280;36665;51.786;21.594;2023-03-30T00:44:07;92575.46;;;1.21;65.46
50696;BME280;36665;51.786;21.594;2023-03-30T00:52:31;92555.40;;;1.15;65.52
50696;BME280;36665;51.786;21.594;2023-03-30T01:00:57;92536.27;;;1.10;65.54
50696;BME280;36665;51.786;21.594;2023-03-30T01:09:22;92527.33;;;1.09;65.66
50696;BME280;36665;51.786;21.594;2023-03-30T01:18:00;92544.79;;;1.13;65.68
50696;BME280;36665;51.786;21.594;2023-03-30T01:26:39;92567.35;;;1.19;65.68
50696;BME280;36665;51.786;21.594;2023-03-30T01:35:21;92602.60;;;1.29;65.59
50696;BME280;36665;51.786;21.594;2023-03-30T01:52:38;92663.14;;;1.46;65.59
50696;BME280;36665;51.786;21.594;2023-03-30T02:01:05;92652.23;;;1.43;65.66
50696;BME280;36665;51.786;21.594;2023-03-30T02:09:31;92623.14;;;1.35;65.75
50696;BME280;36665;51.786;21.594;2023-03-30T02:17:55;92587.17;;;1.25;65.84
50696;BME280;36665;51.786;21.594;2023-03-30T02:26:18;92555.42;;;1.16;65.62
50696;BME280;36665;51.786;21.594;2023-03-30T02:43:36;92570.00;;;1.19;65.64
50696;BME280;36665;51.786;21.594;2023-03-30T03:09:36;92598.16;;;1.28;65.49
50696;BME280;36665;51.786;21.594;2023-03-30T03:18:00;92591.64;;;1.26;65.59
50696;BME280;36665;51.786;21.594;2023-03-30T03:26:24;92589.46;;;1.26;65.75
50696;BME280;36665;51.786;21.594;2023-03-30T03:34:49;92605.69;;;1.31;65.73
50696;BME280;36665;51.786;21.594;2023-03-30T03:43:14;92626.67;;;1.37;65.39
50696;BME280;36665;51.786;21.594;2023-03-30T03:51:37;92643.60;;;1.42;65.68
50696;BME280;36665;51.786;21.594;2023-03-30T04:00:02;92668.98;;;1.48;65.82
50696;BME280;36665;51.786;21.594;2023-03-30T04:08:34;92698.45;;;1.56;65.65
50696;BME280;36665;51.786;21.594;2023-03-30T04:17:33;92740.65;;;1.68;65.70
50696;BME280;36665;51.786;21.594;2023-03-30T04:26:24;92765.48;;;1.75;65.52
50696;BME280;36665;51.786;21.594;2023-03-30T04:34:50;92783.50;;;1.80;65.51
50696;BME280;36665;51.786;21.594;2023-03-30T04:43:41;92800.95;;;1.85;65.70
50696;BME280;36665;51.786;21.594;2023-03-30T04:52:28;92813.36;;;1.88;65.83
50696;BME280;36665;51.786;21.594;2023-03-30T05:01:17;92836.77;;;1.94;65.68
50696;BME280;36665;51.786;21.594;2023-03-30T05:09:52;92860.58;;;2.00;65.79
50696;BME280;36665;51.786;21.594;2023-03-30T05:18:54;92888.09;;;2.07;65.63
50696;BME280;36665;51.786;21.594;2023-03-30T05:27:36;92914.25;;;2.14;66.01
50696;BME280;36665;51.786;21.594;2023-03-30T05:36:13;92941.75;;;2.23;65.91
50696;BME280;36665;51.786;21.594;2023-03-30T05:45:00;92996.71;;;2.37;65.98
50696;BME280;36665;51.786;21.594;2023-03-30T05:53:41;93043.31;;;2.52;65.99
50696;BME280;36665;51.786;21.594;2023-03-30T06:02:24;93091.99;;;2.63;66.04
50696;BME280;36665;51.786;21.594;2023-03-30T06:10:54;93138.14;;;2.75;66.06
50696;BME280;36665;51.786;21.594;2023-03-30T06:19:20;93192.41;;;2.90;66.10
50696;BME280;36665;51.786;21.594;2023-03-30T06:27:43;93257.80;;;3.08;66.08
50696;BME280;36665;51.786;21.594;2023-03-30T06:36:12;93337.91;;;3.30;66.22
50696;BME280;36665;51.786;21.594;2023-03-30T06:44:37;93426.65;;;3.54;66.33
50696;BME280;36665;51.786;21.594;2023-03-30T06:53:05;93506.35;;;3.76;66.13
50696;BME280;36665;51.786;21.594;2023-03-30T07:01:35;93561.50;;;3.90;66.25
50696;BME280;36665;51.786;21.594;2023-03-30T07:10:20;93630.89;;;4.09;66.25
50696;BME280;36665;51.786;21.594;2023-03-30T07:18:44;93707.83;;;4.30;66.55
50696;BME280;36665;51.786;21.594;2023-03-30T07:27:09;93772.80;;;4.47;66.72
50696;BME280;36665;51.786;21.594;2023-03-30T07:35:35;93837.34;;;4.64;66.71
50696;BME280;36665;51.786;21.594;2023-03-30T07:44:00;93914.02;;;4.85;66.84
50696;BME280;36665;51.786;21.594;2023-03-30T07:52:24;93983.59;;;5.03;66.62
50696;BME280;36665;51.786;21.594;2023-03-30T08:00:52;94057.16;;;5.22;66.71
50696;BME280;36665;51.786;21.594;2023-03-30T08:09:30;94127.69;;;5.40;66.68
50696;BME280;36665;51.786;21.594;2023-03-30T08:17:54;94223.91;;;5.65;66.69
50696;BME280;36665;51.786;21.594;2023-03-30T08:26:18;94304.37;;;5.87;66.84
50696;BME280;36665;51.786;21.594;2023-03-30T08:34:40;94356.71;;;6.01;67.02
50696;BME280;36665;51.786;21.594;2023-03-30T08:51:59;94684.47;;;6.87;67.00
50696;BME280;36665;51.786;21.594;2023-03-30T09:08:59;94909.53;;;7.46;67.37
50696;BME280;36665;51.786;21.594;2023-03-30T09:17:55;94903.83;;;7.45;67.47
50696;BME280;36665;51.786;21.594;2023-03-30T09:35:01;94976.20;;;7.63;67.30
50696;BME280;36665;51.786;21.594;2023-03-30T09:43:47;95040.88;;;7.79;67.56
50696;BME280;36665;51.786;21.594;2023-03-30T09:52:19;95062.52;;;7.85;67.37
50696;BME280;36665;51.786;21.594;2023-03-30T10:00:43;95140.79;;;8.05;67.66
50696;BME280;36665;51.786;21.594;2023-03-30T10:09:10;95296.28;;;8.45;67.77
50696;BME280;36665;51.786;21.594;2023-03-30T10:17:39;95493.39;;;8.96;67.69
50696;BME280;36665;51.786;21.594;2023-03-30T10:26:04;95622.73;;;9.30;67.80
50696;BME280;36665;51.786;21.594;2023-03-30T10:34:46;95676.87;;;9.43;68.01
50696;BME280;36665;51.786;21.594;2023-03-30T10:43:17;95679.75;;;9.44;67.79
50696;BME280;36665;51.786;21.594;2023-03-30T10:51:57;95694.34;;;9.47;67.97
50696;BME280;36665;51.786;21.594;2023-03-30T11:00:31;95812.65;;;9.78;67.95
50696;BME280;36665;51.786;21.594;2023-03-30T11:09:04;95957.16;;;10.14;67.94
50696;BME280;36665;51.786;21.594;2023-03-30T11:17:55;96123.16;;;10.57;67.96
50696;BME280;36665;51.786;21.594;2023-03-30T11:26:55;96255.23;;;10.89;68.17
50696;BME280;36665;51.786;21.594;2023-03-30T11:43:59;96544.67;;;11.62;68.16
50696;BME280;36665;51.786;21.594;2023-03-30T11:52:36;96629.12;;;11.83;68.18
50696;BME280;36665;51.786;21.594;2023-03-30T12:10:02;96630.62;;;11.83;68.36
50696;BME280;36665;51.786;21.594;2023-03-30T12:27:26;96593.26;;;11.73;68.39
50696;BME280;36665;51.786;21.594;2023-03-30T13:18:54;96771.39;;;12.16;68.12
50696;BME280;36665;51.786;21.594;2023-03-30T13:52:54;96392.88;;;11.20;67.93
50696;BME280;36665;51.786;21.594;2023-03-30T14:01:21;96352.34;;;11.10;67.69
50696;BME280;36665;51.786;21.594;2023-03-30T14:10:11;96290.16;;;10.93;67.91
50696;BME280;36665;51.786;21.594;2023-03-30T14:18:35;96227.63;;;10.80;67.68
50696;BME280;36665;51.786;21.594;2023-03-30T14:27:11;96168.54;;;10.64;67.87
50696;BME280;36665;51.786;21.594;2023-03-30T14:35:44;96114.91;;;10.50;67.83
50696;BME280;36665;51.786;21.594;2023-03-30T14:44:11;96067.77;;;10.38;67.52
50696;BME280;36665;51.786;21.594;2023-03-30T14:52:45;96040.91;;;10.31;67.38
50696;BME280;36665;51.786;21.594;2023-03-30T15:01:14;96031.55;;;10.29;67.40
50696;BME280;36665;51.786;21.594;2023-03-30T15:09:38;96013.29;;;10.25;67.51
50696;BME280;36665;51.786;21.594;2023-03-30T15:18:02;95981.73;;;10.16;67.64
50696;BME280;36665;51.786;21.594;2023-03-30T15:26:27;95930.11;;;10.03;67.41
50696;BME280;36665;51.786;21.594;2023-03-30T15:35:05;95883.39;;;9.90;67.33
50696;BME280;36665;51.786;21.594;2023-03-30T15:43:30;95834.20;;;9.79;67.41
50696;BME280;36665;51.786;21.594;2023-03-30T15:51:58;95808.15;;;9.72;67.23
50696;BME280;36665;51.786;21.594;2023-03-30T16:00:28;95773.07;;;9.62;67.32
50696;BME280;36665;51.786;21.594;2023-03-30T16:08:54;95746.50;;;9.57;67.17
50696;BME280;36665;51.786;21.594;2023-03-30T16:17:18;95708.09;;;9.46;67.25
50696;BME280;36665;51.786;21.594;2023-03-30T16:25:41;95659.80;;;9.34;67.13
50696;BME280;36665;51.786;21.594;2023-03-30T16:34:07;95621.75;;;9.24;67.11
50696;BME280;36665;51.786;21.594;2023-03-30T16:42:30;95583.66;;;9.13;67.18
50696;BME280;36665;51.786;21.594;2023-03-30T16:50:54;95537.68;;;9.02;67.14
50696;BME280;36665;51.786;21.594;2023-03-30T16:59:21;95487.17;;;8.89;67.11
50696;BME280;36665;51.786;21.594;2023-03-30T17:07:45;95444.86;;;8.79;66.95
50696;BME280;36665;51.786;21.594;2023-03-30T17:16:12;95413.94;;;8.70;67.08
50696;BME280;36665;51.786;21.594;2023-03-30T17:24:36;95374.23;;;8.60;66.94
50696;BME280;36665;51.786;21.594;2023-03-30T17:32:59;95343.56;;;8.52;66.92
50696;BME280;36665;51.786;21.594;2023-03-30T17:41:22;95310.58;;;8.43;66.88
50696;BME280;36665;51.786;21.594;2023-03-30T17:49:45;95266.94;;;8.32;66.95
50696;BME280;36665;51.786;21.594;2023-03-30T17:58:24;95207.18;;;8.16;66.69
50696;BME280;36665;51.786;21.594;2023-03-30T18:06:48;95117.56;;;7.94;66.67
50696;BME280;36665;51.786;21.594;2023-03-30T18:15:19;95069.55;;;7.82;66.71
50696;BME280;36665;51.786;21.594;2023-03-30T18:23:42;95046.84;;;7.75;66.46
50696;BME280;36665;51.786;21.594;2023-03-30T18:32:05;95000.94;;;7.63;66.54
50696;BME280;36665;51.786;21.594;2023-03-30T18:40:49;94951.77;;;7.50;66.41
50696;BME280;36665;51.786;21.594;2023-03-30T18:49:17;94933.33;;;7.46;66.45
50696;BME280;36665;51.786;21.594;2023-03-30T18:57:43;94933.65;;;7.47;66.39
50696;BME280;36665;51.786;21.594;2023-03-30T19:06:16;94963.13;;;7.53;66.50
50696;BME280;36665;51.786;21.594;2023-03-30T19:14:41;94975.73;;;7.57;66.45
50696;BME280;36665;51.786;21.594;2023-03-30T19:23:05;94959.26;;;7.53;66.50
50696;BME280;36665;51.786;21.594;2023-03-30T19:31:28;94937.96;;;7.47;66.40
50696;BME280;36665;51.786;21.594;2023-03-30T19:39:51;94913.42;;;7.43;66.41
50696;BME280;36665;51.786;21.594;2023-03-30T19:48:15;94893.06;;;7.37;66.67
50696;BME280;36665;51.786;21.594;2023-03-30T19:56:38;94878.04;;;7.31;66.52
50696;BME280;36665;51.786;21.594;2023-03-30T20:05:02;94851.54;;;7.25;66.30
50696;BME280;36665;51.786;21.594;2023-03-30T20:13:25;94816.02;;;7.15;66.37
50696;BME280;36665;51.786;21.594;2023-03-30T20:21:49;94758.45;;;7.01;66.09
50696;BME280;36665;51.786;21.594;2023-03-30T20:30:13;94707.34;;;6.87;66.23
50696;BME280;36665;51.786;21.594;2023-03-30T20:38:38;94693.08;;;6.84;66.40
50696;BME280;36665;51.786;21.594;2023-03-30T20:47:01;94691.55;;;6.83;66.32
50696;BME280;36665;51.786;21.594;2023-03-30T20:55:25;94657.92;;;6.75;66.51
50696;BME280;36665;51.786;21.594;2023-03-30T21:03:49;94603.25;;;6.60;66.31
50696;BME280;36665;51.786;21.594;2023-03-30T21:12:12;94581.80;;;6.53;66.33
50696;BME280;36665;51.786;21.594;2023-03-30T21:20:35;94583.45;;;6.54;66.21
50696;BME280;36665;51.786;21.594;2023-03-30T21:28:58;94581.92;;;6.54;66.33
50696;BME280;36665;51.786;21.594;2023-03-30T21:37:21;94559.52;;;6.48;66.39
50696;BME280;36665;51.786;21.594;2023-03-30T21:45:50;94515.19;;;6.37;66.62
50696;BME280;36665;51.786;21.594;2023-03-30T21:54:13;94475.33;;;6.25;66.32
50696;BME280;36665;51.786;21.594;2023-03-30T22:02:37;94469.62;;;6.25;66.35
50696;BME280;36665;51.786;21.594;2023-03-30T22:11:15;94496.92;;;6.32;66.44
50696;BME280;36665;51.786;21.594;2023-03-30T22:19:39;94529.63;;;6.39;66.48
50696;BME280;36665;51.786;21.594;2023-03-30T22:28:02;94556.87;;;6.47;66.68
50696;BME280;36665;51.786;21.594;2023-03-30T22:36:27;94558.67;;;6.47;66.74
50696;BME280;36665;51.786;21.594;2023-03-30T22:44:51;94544.90;;;6.44;66.60
50696;BME280;36665;51.786;21.594;2023-03-30T22:53:15;94561.36;;;6.47;66.87
50696;BME280;36665;51.786;21.594;2023-03-30T23:01:38;94602.48;;;6.57;66.85
50696;BME280;36665;51.786;21.594;2023-03-30T23:10:06;94657.44;;;6.72;66.92
50696;BME280;36665;51.786;21.594;2023-03-30T23:18:29;94708.71;;;6.85;67.02
50696;BME280;36665;51.786;21.594;2023-03-30T23:26:52;94749.47;;;6.96;67.14
50696;BME280;36665;51.786;21.594;2023-03-30T23:35:15;94786.38;;;7.06;66.94
50696;BME280;36665;51.786;21.594;2023-03-30T23:43:38;94816.83;;;7.13;67.07
50696;BME280;36665;51.786;21.594;2023-03-30T23:52:02;94844.89;;;7.21;67.19
